Time;durP1;ratioP1;P1;durP2;ratioP2;P2;SDS_P1;SDS_P2;PMS_P1;PMS_P2;Temp;Humidity;BMP_temperature;BMP_pressure;BME280_temperature;BME280_humidity;BME280_pressure;Samples;Min_cycle;Max_cycle;Signal;HPM_P1;HPM_P2
2022/01/15 00:01:40;;;;;;;15.60;3.45;;;6.90;93.00;;;;;;5116925;28;20088;-68
2022/01/15 00:04:05;;;;;;;9.75;3.28;;;6.90;93.00;;;;;;5116222;28;20032;-68
2022/01/15 00:06:32;;;;;;;8.18;3.38;;;6.80;93.00;;;;;;5121251;27;20097;-68
2022/01/15 00:08:57;;;;;;;3.75;3.38;;;6.80;92.90;;;;;;5122384;28;20039;-68
2022/01/15 00:11:23;;;;;;;5.65;3.20;;;6.80;93.00;;;;;;5090129;28;1073634;-69
2022/01/15 00:13:56;;;;;;;9.35;3.70;;;6.80;92.90;;;;;;5107005;28;20452;-68
2022/01/15 00:16:44;;;;;;;11.48;3.80;;;6.80;93.00;;;;;;5127035;28;20039;-68
2022/01/15 00:19:11;;;;;;;10.30;3.80;;;6.80;92.90;;;;;;5128585;28;20043;-68
2022/01/15 00:21:37;;;;;;;12.45;4.32;;;6.80;92.90;;;;;;5128475;28;20529;-68
2022/01/15 00:24:03;;;;;;;12.57;4.18;;;6.90;92.90;;;;;;5128104;28;20046;-68
2022/01/15 00:26:30;;;;;;;5.40;4.60;;;6.90;92.90;;;;;;5110553;28;20100;-68
2022/01/15 00:28:56;;;;;;;7.05;4.50;;;6.90;92.90;;;;;;5119432;28;20127;-67
2022/01/15 00:31:22;;;;;;;16.70;5.00;;;7.00;92.90;;;;;;5124699;28;20110;-69
2022/01/15 00:33:48;;;;;;;12.45;4.30;;;6.90;92.80;;;;;;5109236;28;20540;-68
2022/01/15 00:36:15;;;;;;;9.50;4.50;;;6.90;92.80;;;;;;5126360;28;20150;-68
2022/01/15 00:38:41;;;;;;;7.82;5.07;;;6.90;92.80;;;;;;5116825;28;20070;-68
2022/01/15 00:41:07;;;;;;;5.40;4.65;;;6.90;92.80;;;;;;5111250;28;20177;-68
2022/01/15 00:43:33;;;;;;;17.38;7.50;;;7.00;92.90;;;;;;5109936;28;20760;-68
2022/01/15 00:45:58;;;;;;;6.20;4.47;;;7.00;92.90;;;;;;5122167;28;20043;-69
2022/01/15 00:48:25;;;;;;;7.93;4.10;;;7.00;92.90;;;;;;5128733;28;20565;-68
2022/01/15 00:50:51;;;;;;;6.53;5.00;;;7.10;92.80;;;;;;5103179;28;20095;-66
2022/01/15 00:53:17;;;;;;;5.13;4.63;;;7.10;92.80;;;;;;5128175;28;20456;-66
2022/01/15 00:55:42;;;;;;;7.00;4.82;;;7.10;92.70;;;;;;5110865;28;20544;-68
2022/01/15 00:58:08;;;;;;;8.18;4.97;;;7.10;92.70;;;;;;5128457;27;20410;-68
2022/01/15 01:00:34;;;;;;;6.10;4.07;;;7.10;92.70;;;;;;5127338;27;20093;-67
2022/01/15 01:03:00;;;;;;;16.23;4.90;;;7.10;92.70;;;;;;5128631;27;20092;-66
2022/01/15 01:05:25;;;;;;;38.47;5.13;;;7.10;92.70;;;;;;5132306;27;20043;-67
2022/01/15 01:07:51;;;;;;;5.75;5.20;;;7.10;92.60;;;;;;5094438;27;20046;-68
2022/01/15 01:23:37;;;;;;;10.70;5.18;;;7.20;92.50;;;;;;5110586;27;20047;-68
2022/01/15 01:26:10;;;;;;;5.43;4.93;;;7.20;92.50;;;;;;5132290;27;20042;-68
2022/01/15 01:28:44;;;;;;;6.10;5.03;;;7.20;92.40;;;;;;5131818;27;20114;-68
2022/01/15 01:31:17;;;;;;;9.02;5.50;;;7.20;92.40;;;;;;5119481;27;21127;-68
2022/01/15 01:33:48;;;;;;;6.07;5.47;;;7.30;92.40;;;;;;5119885;27;20044;-68
2022/01/15 01:36:38;;;;;;;5.95;4.93;;;7.30;92.30;;;;;;5094325;27;20043;-68
2022/01/15 01:39:10;;;;;;;9.75;4.78;;;7.30;92.30;;;;;;5124848;27;20039;-68
2022/01/15 01:41:41;;;;;;;6.32;4.88;;;7.30;92.20;;;;;;5132289;27;20496;-68
2022/01/15 01:44:08;;;;;;;6.05;5.45;;;7.30;92.20;;;;;;5119995;27;20050;-69
2022/01/15 01:46:41;;;;;;;8.75;5.28;;;7.20;92.10;;;;;;5106890;27;20487;-69
2022/01/15 01:49:12;;;;;;;5.53;4.95;;;7.30;92.10;;;;;;5131318;27;20043;-68
2022/01/15 01:51:39;;;;;;;5.68;5.00;;;7.30;92.20;;;;;;5132062;27;20047;-67
2022/01/15 01:54:12;;;;;;;6.03;5.43;;;7.30;92.10;;;;;;5127966;27;20031;-67
2022/01/15 01:56:38;;;;;;;6.15;5.28;;;7.30;92.10;;;;;;5113452;27;20381;-67
2022/01/15 01:59:06;;;;;;;6.30;5.70;;;7.40;92.00;;;;;;5121835;27;20046;-69
2022/01/15 02:01:32;;;;;;;6.28;5.68;;;7.30;91.90;;;;;;5102179;27;20571;-69
2022/01/15 02:03:58;;;;;;;5.97;5.13;;;7.40;91.90;;;;;;5124508;27;20373;-69
2022/01/15 02:06:23;;;;;;;6.07;5.35;;;7.40;91.80;;;;;;5127157;27;20049;-69
2022/01/15 02:08:50;;;;;;;6.18;5.57;;;7.40;91.70;;;;;;5120983;27;20047;-68
2022/01/15 02:11:16;;;;;;;5.82;5.13;;;7.40;91.70;;;;;;5128545;27;20578;-68
2022/01/15 02:13:44;;;;;;;6.97;5.28;;;7.40;91.70;;;;;;5126854;27;20039;-66
2022/01/15 02:16:11;;;;;;;5.80;5.18;;;7.40;91.70;;;;;;5130053;27;20050;-69
2022/01/15 02:18:37;;;;;;;5.88;5.13;;;7.40;91.60;;;;;;5125147;27;20050;-68
2022/01/15 02:23:43;;;;;;;5.95;5.35;;;7.40;91.60;;;;;;5130968;27;20047;-68
2022/01/15 02:26:12;;;;;;;5.95;5.22;;;7.50;91.50;;;;;;5131060;27;20053;-68
2022/01/15 02:28:41;;;;;;;6.18;5.55;;;7.40;91.40;;;;;;5130872;27;20539;-68
2022/01/15 02:31:09;;;;;;;4.95;4.45;;;7.50;91.40;;;;;;5112420;27;20487;-68
2022/01/15 02:33:35;;;;;;;5.25;4.75;;;7.50;91.40;;;;;;5117135;27;20079;-68
2022/01/15 02:36:02;;;;;;;6.30;5.18;;;7.50;91.30;;;;;;5118401;27;20047;-69
2022/01/15 02:38:28;;;;;;;6.60;5.38;;;7.50;91.30;;;;;;5118838;27;20038;-68
2022/01/15 02:40:54;;;;;;;6.25;5.05;;;7.50;91.20;;;;;;5128261;27;21790;-69
2022/01/15 02:43:27;;;;;;;6.03;5.43;;;7.50;91.20;;;;;;5131096;27;20050;-68
2022/01/15 02:45:57;;;;;;;6.55;5.53;;;7.50;91.10;;;;;;5128767;27;20039;-68
2022/01/15 02:48:26;;;;;;;6.15;5.13;;;7.50;91.10;;;;;;5126056;27;20039;-69
2022/01/15 02:50:53;;;;;;;5.50;4.55;;;7.50;91.10;;;;;;5120500;27;20035;-69
2022/01/15 02:53:19;;;;;;;6.78;5.05;;;7.60;91.10;;;;;;5140610;27;20047;-68
2022/01/15 02:55:49;;;;;;;5.22;4.72;;;7.50;91.00;;;;;;5130490;27;20512;-68
2022/01/15 02:58:17;;;;;;;5.82;4.45;;;7.50;91.00;;;;;;5125113;27;20050;-68
2022/01/15 03:00:43;;;;;;;4.28;3.88;;;7.60;90.90;;;;;;5129539;27;20135;-68
2022/01/15 03:03:08;;;;;;;4.68;3.40;;;7.50;90.90;;;;;;5128656;27;20462;-69
2022/01/15 03:05:35;;;;;;;3.50;3.20;;;7.50;90.80;;;;;;5115866;27;20399;-69
2022/01/15 03:08:00;;;;;;;3.95;3.50;;;7.50;90.80;;;;;;5116815;27;20408;-68
2022/01/15 03:10:26;;;;;;;3.78;3.38;;;7.40;90.80;;;;;;5129810;27;20059;-69
2022/01/15 03:12:56;;;;;;;4.55;3.20;;;7.40;90.70;;;;;;5129586;27;20051;-69
2022/01/15 03:15:22;;;;;;;3.95;3.10;;;7.40;90.70;;;;;;5112938;27;20096;-68
2022/01/15 03:17:49;;;;;;;3.70;2.75;;;7.30;90.60;;;;;;5110518;27;20568;-68
2022/01/15 03:20:17;;;;;;;3.92;3.08;;;7.30;90.70;;;;;;5111158;27;20092;-70
2022/01/15 03:22:44;;;;;;;3.15;2.80;;;7.30;90.70;;;;;;5110680;27;20051;-69
2022/01/15 03:25:11;;;;;;;3.33;2.85;;;7.30;90.70;;;;;;5113765;27;20053;-70
2022/01/15 03:27:38;;;;;;;4.18;3.28;;;7.30;90.80;;;;;;5120147;27;20078;-69
2022/01/15 03:30:08;;;;;;;4.15;2.70;;;7.30;90.80;;;;;;5110497;27;20496;-69
2022/01/15 03:32:34;;;;;;;3.38;3.08;;;7.40;90.90;;;;;;5117660;27;20122;-70
2022/01/15 03:35:00;;;;;;;3.03;2.47;;;7.40;90.80;;;;;;5122284;27;20114;-70
2022/01/15 03:37:26;;;;;;;3.65;2.42;;;7.30;90.70;;;;;;5129595;27;20031;-69
2022/01/15 03:39:52;;;;;;;3.70;2.50;;;7.30;90.70;;;;;;5119119;27;20048;-69
2022/01/15 03:42:18;;;;;;;3.20;2.72;;;7.30;90.70;;;;;;5111626;27;20123;-69
2022/01/15 03:44:48;;;;;;;3.30;2.90;;;7.30;90.70;;;;;;5093720;28;20043;-70
2022/01/15 03:47:15;;;;;;;3.15;2.55;;;7.30;90.70;;;;;;5111271;28;20138;-69
2022/01/15 03:49:41;;;;;;;3.10;2.75;;;7.20;90.60;;;;;;5128379;28;20035;-69
2022/01/15 03:52:08;;;;;;;5.18;3.28;;;7.20;90.60;;;;;;5129882;28;20053;-69
2022/01/15 03:54:34;;;;;;;3.38;3.08;;;7.20;90.60;;;;;;5128945;27;20044;-69
2022/01/15 03:57:00;;;;;;;3.60;2.80;;;7.20;90.70;;;;;;5129689;28;20054;-69
2022/01/15 03:59:27;;;;;;;3.13;2.70;;;7.20;90.70;;;;;;5104592;28;20047;-69
2022/01/15 04:01:52;;;;;;;4.07;3.22;;;7.20;90.70;;;;;;5129791;27;20072;-69
2022/01/15 04:04:18;;;;;;;3.83;2.60;;;7.20;90.70;;;;;;5129828;28;20051;-69
2022/01/15 04:06:44;;;;;;;3.45;2.92;;;7.20;90.70;;;;;;5129244;28;20039;-69
2022/01/15 04:09:11;;;;;;;2.45;2.13;;;7.20;90.70;;;;;;5129221;28;20556;-69
2022/01/15 04:11:38;;;;;;;2.90;2.30;;;7.20;90.70;;;;;;5129430;28;20035;-68
2022/01/15 04:14:04;;;;;;;3.13;2.53;;;7.20;90.70;;;;;;5128915;28;20043;-68
2022/01/15 04:16:30;;;;;;;3.15;2.58;;;7.20;90.50;;;;;;5111585;28;20518;-68
2022/01/15 04:19:00;;;;;;;2.65;2.42;;;7.10;90.60;;;;;;5114851;28;20088;-69
2022/01/15 04:21:27;;;;;;;2.60;2.40;;;7.10;90.70;;;;;;5091662;28;20043;-68
2022/01/15 04:23:53;;;;;;;3.22;2.30;;;7.10;90.70;;;;;;5113239;28;20086;-69
2022/01/15 04:26:24;;;;;;;3.10;2.53;;;7.10;90.70;;;;;;5112232;28;20078;-68
2022/01/15 04:28:50;;;;;;;4.18;2.10;;;7.10;90.70;;;;;;5109761;28;20039;-68
2022/01/15 04:31:17;;;;;;;2.70;2.05;;;7.10;90.70;;;;;;5108923;28;20044;-68
2022/01/15 04:33:42;;;;;;;3.97;2.67;;;7.10;90.70;;;;;;5114056;27;20047;-68
2022/01/15 04:36:09;;;;;;;2.63;2.40;;;7.10;90.70;;;;;;5118788;27;20112;-69
2022/01/15 04:38:37;;;;;;;3.30;2.53;;;7.10;90.70;;;;;;5116369;27;20040;-69
2022/01/15 04:41:05;;;;;;;3.70;2.50;;;7.10;90.70;;;;;;5122121;27;20145;-69
2022/01/15 04:43:31;;;;;;;3.03;2.55;;;7.20;90.70;;;;;;5097096;28;20422;-69
2022/01/15 04:45:56;;;;;;;4.05;2.58;;;7.10;90.60;;;;;;5118047;27;20515;-69
2022/01/15 04:48:22;;;;;;;3.72;2.75;;;7.10;90.60;;;;;;5106172;27;20051;-69
2022/01/15 04:50:48;;;;;;;3.55;2.78;;;7.10;90.60;;;;;;5124275;27;20496;-69
2022/01/15 04:53:14;;;;;;;4.35;2.63;;;7.20;90.60;;;;;;5120347;27;20388;-69
2022/01/15 04:55:40;;;;;;;2.97;2.63;;;7.20;90.60;;;;;;5110652;27;20498;-69
2022/01/15 04:58:07;;;;;;;3.15;2.33;;;7.10;90.60;;;;;;5106951;27;20039;-69
2022/01/15 05:00:34;;;;;;;3.60;2.35;;;7.20;90.50;;;;;;5112120;27;20039;-69
2022/01/15 05:03:00;;;;;;;2.92;2.10;;;7.20;90.50;;;;;;5093985;27;20074;-69
2022/01/15 05:05:27;;;;;;;2.20;1.88;;;7.20;90.50;;;;;;5094038;28;20563;-69
2022/01/15 05:07:53;;;;;;;2.60;2.00;;;7.20;90.50;;;;;;5112285;27;20039;-69
2022/01/15 05:10:23;;;;;;;2.58;1.83;;;7.10;90.50;;;;;;5118116;27;20134;-69
2022/01/15 05:12:49;;;;;;;2.60;2.00;;;7.20;90.40;;;;;;5098157;28;20051;-69
2022/01/15 05:15:17;;;;;;;2.00;1.80;;;7.20;90.40;;;;;;5093894;27;20507;-69
2022/01/15 05:17:44;;;;;;;3.75;2.55;;;7.10;90.30;;;;;;5112438;27;20080;-70
2022/01/15 05:20:11;;;;;;;2.13;1.63;;;7.10;90.20;;;;;;5109821;27;20468;-69
2022/01/15 05:22:37;;;;;;;2.22;1.70;;;7.10;90.30;;;;;;5083546;27;20047;-69
2022/01/15 05:25:07;;;;;;;2.35;1.60;;;7.10;90.30;;;;;;5119470;27;20043;-69
2022/01/15 05:27:36;;;;;;;1.60;1.38;;;7.10;90.30;;;;;;5116701;27;20047;-69
2022/01/15 05:30:05;;;;;;;4.57;1.58;;;7.10;90.30;;;;;;5108733;27;20551;-70
2022/01/15 05:32:30;;;;;;;2.33;1.83;;;7.10;90.30;;;;;;5095882;28;20027;-69
2022/01/15 05:34:57;;;;;;;2.17;1.65;;;7.10;90.20;;;;;;5099936;27;20457;-69
2022/01/15 05:37:24;;;;;;;1.83;1.60;;;7.10;90.20;;;;;;5130765;27;20100;-70
2022/01/15 05:39:49;;;;;;;1.42;1.33;;;7.10;90.20;;;;;;5122423;27;20088;-69
2022/01/15 05:42:15;;;;;;;2.20;1.45;;;7.00;90.10;;;;;;5115982;27;20044;-70
2022/01/15 05:44:41;;;;;;;1.30;1.20;;;7.00;90.10;;;;;;5114084;27;20039;-69
2022/01/15 05:47:07;;;;;;;2.53;1.48;;;7.00;90.10;;;;;;5111654;27;20126;-69
2022/01/15 05:49:34;;;;;;;1.88;1.23;;;7.00;90.10;;;;;;5111846;27;20047;-69
2022/01/15 05:51:59;;;;;;;1.27;1.17;;;7.00;90.00;;;;;;5113896;27;20047;-69
2022/01/15 05:54:25;;;;;;;2.60;1.40;;;7.00;90.00;;;;;;5129911;27;20042;-69
2022/01/15 05:56:51;;;;;;;1.92;1.10;;;7.00;89.90;;;;;;5112705;27;20506;-69
2022/01/15 05:59:16;;;;;;;1.27;1.17;;;6.90;89.80;;;;;;5132082;27;20403;-70
2022/01/15 06:01:42;;;;;;;1.95;1.42;;;6.90;89.80;;;;;;5131599;27;20047;-69
2022/01/15 06:04:07;;;;;;;2.22;1.23;;;6.90;89.80;;;;;;5113430;27;20047;-68
2022/01/15 06:06:33;;;;;;;1.55;1.23;;;7.00;89.70;;;;;;5131935;27;20050;-69
2022/01/15 06:08:59;;;;;;;2.13;1.45;;;6.90;89.70;;;;;;5130339;27;20488;-68
2022/01/15 06:11:24;;;;;;;1.75;1.30;;;6.90;89.70;;;;;;5129836;27;20578;-69
2022/01/15 06:13:50;;;;;;;1.77;1.30;;;6.90;89.60;;;;;;5130863;27;20055;-69
2022/01/15 06:16:16;;;;;;;1.30;1.20;;;6.80;89.50;;;;;;5113595;27;20398;-69
2022/01/15 06:18:42;;;;;;;1.52;1.13;;;6.90;89.30;;;;;;5131800;27;20039;-69
2022/01/15 06:21:08;;;;;;;1.98;1.67;;;6.80;89.30;;;;;;5131137;27;20043;-69
2022/01/15 06:23:34;;;;;;;2.08;1.35;;;6.80;89.20;;;;;;5094607;27;20112;-69
2022/01/15 06:26:00;;;;;;;1.77;1.25;;;6.70;89.30;;;;;;5120372;27;20045;-69
2022/01/15 06:28:26;;;;;;;1.60;1.40;;;6.70;89.00;;;;;;5130018;27;20047;-69
2022/01/15 06:30:52;;;;;;;3.08;1.30;;;6.70;89.20;;;;;;5112775;27;20039;-69
2022/01/15 06:33:17;;;;;;;2.67;1.65;;;6.70;89.30;;;;;;5130872;27;20336;-69
2022/01/15 06:35:43;;;;;;;1.50;1.38;;;6.60;89.30;;;;;;5131296;27;20047;-69
2022/01/15 06:38:09;;;;;;;2.20;1.30;;;6.60;89.40;;;;;;5131089;27;20104;-69
2022/01/15 06:40:35;;;;;;;1.58;1.27;;;6.60;89.50;;;;;;5128232;27;20487;-69
2022/01/15 06:43:02;;;;;;;2.03;1.60;;;6.60;89.40;;;;;;5131377;27;20113;-69
2022/01/15 06:45:29;;;;;;;1.83;1.58;;;6.60;89.40;;;;;;5112624;27;20082;-69
2022/01/15 06:47:55;;;;;;;2.45;1.55;;;6.60;89.40;;;;;;5131234;27;20089;-69
2022/01/15 06:50:23;;;;;;;1.83;1.40;;;6.60;89.40;;;;;;5130660;27;20067;-69
2022/01/15 06:52:49;;;;;;;1.77;1.55;;;6.60;89.50;;;;;;5123128;27;20082;-69
2022/01/15 06:55:15;;;;;;;2.80;1.92;;;6.60;89.30;;;;;;5130413;27;20130;-69
2022/01/15 06:57:41;;;;;;;2.22;1.80;;;6.50;89.30;;;;;;5129852;27;20122;-69
2022/01/15 07:00:08;;;;;;;1.70;1.52;;;6.50;89.40;;;;;;5130610;27;20563;-69
2022/01/15 07:02:34;;;;;;;2.50;1.70;;;6.50;89.50;;;;;;5130443;27;20123;-69
2022/01/15 07:05:00;;;;;;;3.20;1.80;;;6.50;89.50;;;;;;5130622;27;20035;-68
2022/01/15 07:07:26;;;;;;;1.70;1.50;;;6.50;89.50;;;;;;5129925;27;20287;-69
2022/01/15 07:09:52;;;;;;;1.77;1.52;;;6.40;89.50;;;;;;5130680;27;20483;-68
2022/01/15 07:12:17;;;;;;;2.08;1.58;;;6.40;89.50;;;;;;5130855;27;20050;-69
2022/01/15 07:14:43;;;;;;;2.35;1.38;;;6.40;89.60;;;;;;5129100;27;20459;-69
2022/01/15 07:17:10;;;;;;;1.75;1.60;;;6.40;89.70;;;;;;5130369;27;20118;-69
2022/01/15 07:19:36;;;;;;;2.30;1.80;;;6.40;89.70;;;;;;5129783;27;20053;-69
2022/01/15 07:22:03;;;;;;;2.13;1.60;;;6.30;89.60;;;;;;5111464;27;20107;-69
2022/01/15 07:24:28;;;;;;;1.88;1.55;;;6.30;89.80;;;;;;5129412;27;20061;-70
2022/01/15 07:26:54;;;;;;;2.33;1.75;;;6.30;89.80;;;;;;5130470;27;20483;-70
2022/01/15 07:29:20;;;;;;;2.95;1.77;;;6.20;89.90;;;;;;5130435;27;20039;-70
2022/01/15 07:31:46;;;;;;;2.42;1.80;;;6.20;90.00;;;;;;5129826;27;20046;-70
2022/01/15 07:34:13;;;;;;;2.97;2.22;;;6.20;90.10;;;;;;5110570;27;20395;-70
2022/01/15 07:36:39;;;;;;;2.60;1.95;;;6.10;90.10;;;;;;5114877;27;20119;-70
2022/01/15 07:39:07;;;;;;;2.65;2.30;;;6.10;90.00;;;;;;5102481;27;20039;-69
2022/01/15 07:41:33;;;;;;;5.90;2.40;;;6.00;90.30;;;;;;5088548;27;20051;-69
2022/01/15 07:43:59;;;;;;;2.90;2.60;;;6.00;90.40;;;;;;5125016;27;20047;-69
2022/01/15 07:46:25;;;;;;;2.85;2.55;;;6.10;90.40;;;;;;5113356;28;20036;-69
2022/01/15 07:48:51;;;;;;;4.18;2.60;;;6.00;90.50;;;;;;5125944;28;20043;-69
2022/01/15 07:51:16;;;;;;;2.92;2.33;;;6.00;90.60;;;;;;5096913;28;20407;-69
2022/01/15 07:53:42;;;;;;;2.55;2.30;;;6.00;90.70;;;;;;5122414;28;20047;-69
2022/01/15 07:56:07;;;;;;;2.58;2.00;;;6.10;90.60;;;;;;5123922;28;20036;-69
2022/01/15 07:58:33;;;;;;;2.20;2.00;;;6.10;90.60;;;;;;5105806;28;20058;-69
2022/01/15 08:00:59;;;;;;;2.65;2.40;;;6.00;90.40;;;;;;5125282;28;20480;-70
2022/01/15 08:03:24;;;;;;;4.25;2.78;;;5.90;90.50;;;;;;5123575;28;20127;-71
2022/01/15 08:05:50;;;;;;;3.75;3.05;;;5.90;90.40;;;;;;5123892;27;20745;-70
2022/01/15 08:08:15;;;;;;;3.47;3.03;;;5.80;90.80;;;;;;5103642;27;20333;-71
2022/01/15 08:10:42;;;;;;;3.17;2.88;;;5.80;90.90;;;;;;5128662;27;20055;-71
2022/01/15 08:13:08;;;;;;;3.50;2.97;;;5.80;90.90;;;;;;5110335;27;20483;-71
2022/01/15 08:15:34;;;;;;;4.18;3.17;;;5.90;90.80;;;;;;5094134;27;20126;-69
2022/01/15 08:18:00;;;;;;;4.55;3.50;;;5.80;90.90;;;;;;5126066;27;20049;-71
2022/01/15 08:20:26;;;;;;;5.00;3.33;;;5.80;91.00;;;;;;5132944;27;20438;-71
2022/01/15 08:22:52;;;;;;;4.75;3.92;;;5.90;91.00;;;;;;5132504;27;20127;-71
2022/01/15 08:25:19;;;;;;;4.53;3.80;;;5.90;91.00;;;;;;5131633;27;20051;-71
2022/01/15 08:27:46;;;;;;;5.05;3.70;;;5.80;91.00;;;;;;5112639;27;20423;-67
2022/01/15 08:30:13;;;;;;;4.30;3.35;;;5.80;91.20;;;;;;5133008;27;20104;-71
2022/01/15 08:32:39;;;;;;;4.22;3.58;;;5.80;91.30;;;;;;5132897;27;20043;-71
2022/01/15 08:35:06;;;;;;;5.22;3.72;;;5.80;91.50;;;;;;5114260;27;20383;-71
2022/01/15 08:37:32;;;;;;;8.18;4.43;;;5.90;91.50;;;;;;5132159;27;20043;-71
2022/01/15 08:39:57;;;;;;;5.68;4.40;;;5.90;91.50;;;;;;5114809;27;20031;-71
2022/01/15 08:42:23;;;;;;;4.90;4.07;;;5.90;91.50;;;;;;5133155;27;20124;-71
2022/01/15 08:44:51;;;;;;;5.10;4.25;;;6.00;91.40;;;;;;5133268;27;20051;-70
2022/01/15 08:47:17;;;;;;;4.95;3.65;;;6.10;91.50;;;;;;5129823;27;20132;-69
2022/01/15 08:49:42;;;;;;;5.43;3.70;;;6.10;91.40;;;;;;5125000;27;20179;-71
2022/01/15 08:52:08;;;;;;;5.90;4.20;;;6.00;91.30;;;;;;5129367;27;20495;-69
2022/01/15 08:54:34;;;;;;;4.78;3.75;;;6.00;91.30;;;;;;5103026;27;20048;-70
2022/01/15 08:56:59;;;;;;;5.93;4.18;;;6.00;91.30;;;;;;5131527;27;20051;-71
2022/01/15 08:59:27;;;;;;;4.82;4.07;;;6.10;91.40;;;;;;5123069;27;20138;-69
2022/01/15 09:01:54;;;;;;;4.78;4.00;;;6.10;91.40;;;;;;5120020;27;20601;-70
2022/01/15 09:04:20;;;;;;;4.45;3.67;;;6.10;91.30;;;;;;5114969;27;20043;-70
2022/01/15 09:06:46;;;;;;;6.28;4.32;;;6.20;91.40;;;;;;5090032;27;20039;-70
2022/01/15 09:09:12;;;;;;;4.47;3.70;;;6.20;91.40;;;;;;5131840;27;20043;-70
2022/01/15 09:11:38;;;;;;;5.60;3.97;;;6.30;91.40;;;;;;5131897;27;20157;-70
2022/01/15 09:14:04;;;;;;;5.40;3.92;;;6.40;91.30;;;;;;5108880;27;20043;-67
2022/01/15 09:16:29;;;;;;;5.03;3.40;;;6.30;91.00;;;;;;5122146;27;20674;-70
2022/01/15 09:18:56;;;;;;;5.78;3.50;;;6.20;91.10;;;;;;5130422;27;20039;-70
2022/01/15 09:21:22;;;;;;;4.53;3.45;;;6.30;91.10;;;;;;5112898;27;20047;-72
2022/01/15 09:23:48;;;;;;;4.03;3.45;;;6.20;91.00;;;;;;5113415;27;20496;-72
2022/01/15 09:31:47;;;;;;;5.60;3.97;;;6.10;91.00;;;;;;5130700;27;20070;-72
2022/01/15 09:34:13;;;;;;;6.80;3.72;;;6.10;91.00;;;;;;5110900;28;20382;-72
2022/01/15 09:36:38;;;;;;;3.92;3.17;;;6.10;90.80;;;;;;5119745;27;20082;-72
2022/01/15 09:39:07;;;;;;;4.20;3.35;;;6.00;91.10;;;;;;5130412;27;20107;-68
2022/01/15 09:41:36;;;;;;;6.05;3.97;;;6.00;91.20;;;;;;5129850;27;20403;-70
2022/01/15 09:44:02;;;;;;;4.78;3.55;;;6.10;91.20;;;;;;5128691;27;20114;-70
2022/01/15 09:46:29;;;;;;;4.95;3.72;;;6.10;91.20;;;;;;5124820;27;20449;-71
2022/01/15 09:48:55;;;;;;;4.03;3.08;;;6.10;91.10;;;;;;5122151;27;20054;-72
2022/01/15 09:51:20;;;;;;;3.40;2.75;;;6.10;91.10;;;;;;5111139;27;20039;-71
2022/01/15 09:53:46;;;;;;;3.88;3.00;;;6.20;91.00;;;;;;5096118;27;20105;-71
2022/01/15 09:56:12;;;;;;;4.50;3.63;;;6.10;90.90;;;;;;5113469;27;20046;-71
2022/01/15 09:58:38;;;;;;;3.42;3.13;;;6.00;90.80;;;;;;5112697;27;20078;-72
2022/01/15 10:01:03;;;;;;;4.75;3.60;;;5.90;90.90;;;;;;5123002;27;20032;-71
2022/01/15 10:03:29;;;;;;;7.45;4.13;;;5.90;90.90;;;;;;5121376;27;20039;-72
2022/01/15 10:05:55;;;;;;;6.57;3.88;;;5.90;90.90;;;;;;5092620;27;20051;-71
2022/01/15 10:08:20;;;;;;;5.50;3.85;;;5.90;91.00;;;;;;5112902;27;20074;-71
2022/01/15 10:10:48;;;;;;;4.65;3.65;;;5.90;91.10;;;;;;5095640;27;20043;-72
2022/01/15 10:13:21;;;;;;;5.07;3.58;;;5.90;91.20;;;;;;5105954;27;20184;-70
2022/01/15 10:16:11;;;;;;;4.60;3.42;;;5.90;91.30;;;;;;5127305;27;20096;-71
2022/01/15 10:18:44;;;;;;;5.38;3.97;;;6.00;91.20;;;;;;5129966;27;20046;-71
2022/01/15 10:21:14;;;;;;;5.18;4.00;;;6.00;91.30;;;;;;5128683;27;20114;-71
2022/01/15 10:23:51;;;;;;;5.40;3.90;;;6.00;91.20;;;;;;5111576;27;20043;-70
2022/01/15 10:26:20;;;;;;;8.40;4.75;;;6.00;91.30;;;;;;5130425;27;20107;-71
2022/01/15 10:28:59;;;;;;;6.90;4.93;;;5.90;91.20;;;;;;5129536;27;20035;-72
2022/01/15 10:31:29;;;;;;;7.05;5.65;;;5.90;91.40;;;;;;5105895;27;20062;-72
2022/01/15 10:33:56;;;;;;;5.88;4.82;;;5.90;91.40;;;;;;5128532;27;20039;-72
2022/01/15 10:36:29;;;;;;;7.05;5.10;;;5.90;91.30;;;;;;5128909;27;20047;-72
2022/01/15 10:39:15;;;;;;;7.68;5.40;;;5.90;91.30;;;;;;5120405;27;20069;-70
2022/01/15 10:41:41;;;;;;;7.78;4.95;;;5.80;91.30;;;;;;5127286;27;20050;-71
2022/01/15 10:44:32;;;;;;;6.82;5.05;;;5.80;91.40;;;;;;5107329;27;20039;-70
2022/01/15 10:47:09;;;;;;;8.80;6.75;;;5.80;91.40;;;;;;5106324;27;20054;-71
2022/01/15 10:49:37;;;;;;;9.77;6.85;;;5.80;91.50;;;;;;5124675;27;20133;-70
2022/01/15 10:52:13;;;;;;;11.45;8.00;;;5.80;91.40;;;;;;5089389;27;20082;-71
2022/01/15 10:55:00;;;;;;;13.77;7.38;;;5.80;91.50;;;;;;5124155;27;20053;-71
2022/01/15 10:57:31;;;;;;;10.13;7.32;;;5.80;91.50;;;;;;5127480;27;20051;-71
2022/01/15 11:00:15;;;;;;;13.07;7.82;;;5.80;91.50;;;;;;5100540;27;20381;-71
2022/01/15 11:02:46;;;;;;;11.30;8.15;;;5.70;91.30;;;;;;5115127;27;20400;-71
2022/01/15 11:05:23;;;;;;;13.57;8.63;;;5.70;91.20;;;;;;5117718;27;20058;-71
2022/01/15 11:07:48;;;;;;;15.52;9.75;;;5.70;91.50;;;;;;5113550;27;20043;-71
2022/01/15 11:10:14;;;;;;;15.82;9.30;;;5.60;91.50;;;;;;5123352;27;20055;-71
2022/01/15 11:12:40;;;;;;;15.98;10.98;;;5.60;91.60;;;;;;5128334;27;20055;-71
2022/01/15 11:15:07;;;;;;;24.95;12.05;;;5.60;91.60;;;;;;5128136;27;20164;-70
2022/01/15 11:17:34;;;;;;;26.52;12.02;;;5.60;91.70;;;;;;5128555;27;20043;-70
2022/01/15 11:20:05;;;;;;;20.48;11.60;;;5.60;92.00;;;;;;5126461;27;20043;-71
2022/01/15 11:22:32;;;;;;;21.17;12.43;;;5.50;92.00;;;;;;5123891;27;20523;-70
2022/01/15 11:24:59;;;;;;;19.13;10.45;;;5.50;92.10;;;;;;5091498;27;20043;-72
2022/01/15 11:27:28;;;;;;;26.25;13.23;;;5.60;93.10;;;;;;5127147;27;20491;-71
2022/01/15 11:29:57;;;;;;;22.35;13.40;;;5.70;92.50;;;;;;5128342;27;20047;-70
2022/01/15 11:32:25;;;;;;;21.95;14.48;;;5.80;92.40;;;;;;5104324;27;20047;-70
2022/01/15 11:35:05;;;;;;;30.83;14.65;;;5.80;92.30;;;;;;5110283;27;20069;-70
2022/01/15 11:37:40;;;;;;;21.77;13.10;;;5.90;92.20;;;;;;5128678;27;20035;-70
2022/01/15 11:40:39;;;;;;;23.70;12.52;;;5.90;92.20;;;;;;5090170;28;20039;-71
2022/01/15 11:43:23;;;;;;;21.58;12.38;;;5.90;92.10;;;;;;5126384;27;20043;-69
2022/01/15 11:45:50;;;;;;;22.80;12.35;;;5.90;91.90;;;;;;5125486;27;20045;-70
2022/01/15 11:48:42;;;;;;;31.10;12.00;;;5.80;91.90;;;;;;5107603;28;20043;-70
2022/01/15 11:51:14;;;;;;;22.55;12.60;;;5.80;91.80;;;;;;5126948;27;20070;-70
2022/01/15 11:53:53;;;;;;;;;;;5.70;91.80;;;;;;5111371;28;20059;-70
2022/01/15 11:56:23;;;;;;;28.38;12.20;;;5.70;91.60;;;;;;5127975;28;19919;-70
2022/01/15 11:58:50;;;;;;;18.17;11.55;;;5.60;91.50;;;;;;5109942;28;20058;-73
2022/01/15 12:01:42;;;;;;;22.30;11.68;;;5.60;91.80;;;;;;5130644;28;20095;-76
2022/01/15 12:04:30;;;;;;;16.95;10.27;;;5.70;91.90;;;;;;5113342;28;20051;-75
2022/01/15 12:07:02;;;;;;;17.25;10.43;;;5.60;91.70;;;;;;5127198;28;20140;-76
2022/01/15 12:09:38;;;;;;;13.85;9.65;;;5.60;91.90;;;;;;5109980;28;20103;-75
2022/01/15 12:12:19;;;;;;;15.30;9.77;;;5.50;91.90;;;;;;5113864;28;20051;-75
2022/01/15 12:14:50;;;;;;;15.85;10.15;;;5.60;91.80;;;;;;5094778;28;20055;-75
2022/01/15 12:17:25;;;;;;;14.45;9.35;;;5.40;91.70;;;;;;5126394;27;20043;-75
2022/01/15 12:19:51;;;;;;;13.60;9.18;;;5.40;91.90;;;;;;5113909;28;20108;-69
2022/01/15 12:22:49;;;;;;;13.07;9.88;;;5.40;91.80;;;;;;5127585;28;20130;-70
2022/01/15 12:25:17;;;;;;;12.13;8.82;;;5.40;92.10;;;;;;5129247;28;20051;-70
2022/01/15 12:27:55;;;;;;;11.32;8.40;;;5.30;91.90;;;;;;5127960;28;20074;-71
2022/01/15 12:30:23;;;;;;;13.55;9.02;;;5.30;92.00;;;;;;5125966;28;20039;-70
2022/01/15 12:32:53;;;;;;;13.55;9.57;;;5.30;91.90;;;;;;5119497;28;20432;-71
2022/01/15 12:35:22;;;;;;;14.18;9.95;;;5.30;92.10;;;;;;5113524;28;20488;-71
2022/01/15 12:37:56;;;;;;;13.68;9.77;;;5.30;92.20;;;;;;5129187;27;20043;-71
2022/01/15 12:40:28;;;;;;;13.18;9.13;;;5.40;92.10;;;;;;5125932;28;20521;-71
2022/01/15 12:42:59;;;;;;;15.20;10.13;;;5.40;92.20;;;;;;5107431;28;20047;-72
2022/01/15 12:45:25;;;;;;;14.25;10.07;;;5.50;92.30;;;;;;5107397;28;20047;-72
2022/01/15 12:47:52;;;;;;;14.52;10.95;;;5.40;92.20;;;;;;5124156;28;20039;-71
2022/01/15 12:50:17;;;;;;;14.50;10.52;;;5.50;92.20;;;;;;5105028;28;20882;-71
2022/01/15 12:52:43;;;;;;;15.45;11.65;;;5.50;92.10;;;;;;5090599;28;20138;-71
2022/01/15 12:55:09;;;;;;;17.75;12.30;;;5.50;92.00;;;;;;5110419;27;20407;-71
2022/01/15 12:57:51;;;;;;;18.95;12.32;;;5.50;92.10;;;;;;5129036;27;20042;-71
2022/01/15 13:00:22;;;;;;;15.55;11.25;;;5.60;92.10;;;;;;5128413;27;20059;-71
2022/01/15 13:02:57;;;;;;;18.45;12.50;;;5.50;92.10;;;;;;5108277;27;20775;-72
2022/01/15 13:05:31;;;;;;;16.75;12.77;;;5.60;92.20;;;;;;5111223;27;20047;-71
2022/01/15 13:08:06;;;;;;;19.00;13.90;;;5.60;92.20;;;;;;5129934;27;20660;-72
2022/01/15 13:10:48;;;;;;;19.58;14.73;;;5.60;92.10;;;;;;5110272;27;20057;-71
2022/01/15 13:13:22;;;;;;;21.63;15.07;;;5.70;92.10;;;;;;5093408;27;20059;-71
2022/01/15 13:16:00;;;;;;;18.75;13.73;;;5.60;92.00;;;;;;5112035;27;20046;-71
2022/01/15 13:18:29;;;;;;;22.35;15.13;;;5.60;92.10;;;;;;5120952;27;20043;-71
2022/01/15 13:20:56;;;;;;;25.48;14.88;;;5.60;92.10;;;;;;5125026;27;20055;-71